Time;durP1;ratioP1;P1;durP2;ratioP2;P2;SDS_P1;SDS_P2;PMS_P1;PMS_P2;Temp;Humidity;BMP_temperature;BMP_pressure;BME280_temperature;BME280_humidity;BME280_pressure;Samples;Min_cycle;Max_cycle;Signal;HPM_P1;HPM_P2
2021/10/29 00:00:28;;;;;;;42.58;26.63;;;;;;;;;;2086914;28;20045;-43
2021/10/29 00:01:31;;;;;;;;;;;;;;;;;;2089457;28;20053;-43
2021/10/29 00:02:52;;;;;;;41.60;28.23;;;;;;;;;;2088785;28;20290;-43
2021/10/29 00:03:53;;;;;;;43.45;26.92;;;;;;;;;;2086295;28;20146;-43
2021/10/29 00:04:55;;;;;;;39.58;27.63;;;;;;;;;;2089005;28;20041;-43
2021/10/29 00:05:56;;;;;;;;;;;;;;;;;;2089948;28;20132;-43
2021/10/29 00:06:58;;;;;;;37.55;25.17;;;;;;;;;;2086240;28;19981;-43
2021/10/29 00:07:59;;;;;;;37.03;25.40;;;;;;;;;;2089315;28;20049;-43
2021/10/29 00:09:02;;;;;;;39.47;25.15;;;;;;;;;;2089311;28;20493;-43
2021/10/29 00:10:04;;;;;;;33.90;23.05;;;;;;;;;;2088810;28;20079;-44
2021/10/29 00:11:05;;;;;;;34.45;23.52;;;;;;;;;;2090321;28;20072;-43
2021/10/29 00:12:07;;;;;;;30.63;22.20;;;;;;;;;;2090512;28;20490;-43
2021/10/29 00:13:08;;;;;;;31.75;23.08;;;;;;;;;;2088852;28;20101;-43
2021/10/29 00:14:09;;;;;;;32.63;22.02;;;;;;;;;;2090246;28;20045;-43
2021/10/29 00:15:10;;;;;;;34.63;22.97;;;;;;;;;;2088346;28;20049;-43
2021/10/29 00:16:11;;;;;;;30.35;21.30;;;;;;;;;;2090220;28;20132;-43
2021/10/29 00:17:13;;;;;;;26.50;19.00;;;;;;;;;;2090399;28;20055;-48
2021/10/29 00:18:14;;;;;;;27.92;20.67;;;;;;;;;;2087966;28;20145;-47
2021/10/29 00:19:15;;;;;;;27.03;19.47;;;;;;;;;;2090306;28;20460;-48
2021/10/29 00:20:16;;;;;;;30.33;21.52;;;;;;;;;;2090188;28;20510;-50
2021/10/29 00:21:17;;;;;;;31.15;20.88;;;;;;;;;;2087816;28;20053;-49
2021/10/29 00:22:19;;;;;;;29.20;21.35;;;;;;;;;;2089989;28;20127;-48
2021/10/29 00:23:21;;;;;;;33.15;22.00;;;;;;;;;;2090617;28;20076;-49
2021/10/29 00:24:22;;;;;;;30.02;20.60;;;;;;;;;;2087912;28;20053;-43
2021/10/29 00:25:27;;;;;;;25.10;17.95;;;;;;;;;;2090110;28;20522;-43
2021/10/29 00:26:28;;;;;;;25.50;18.67;;;;;;;;;;2089635;28;20054;-43
2021/10/29 00:27:30;;;;;;;33.50;21.33;;;;;;;;;;2088222;28;20045;-43
2021/10/29 00:28:31;;;;;;;28.02;20.90;;;;;;;;;;2090410;28;20094;-44
2021/10/29 00:29:32;;;;;;;29.33;21.53;;;;;;;;;;2089824;28;20056;-43
2021/10/29 00:30:33;;;;;;;28.88;20.58;;;;;;;;;;2088385;28;20369;-43
2021/10/29 00:31:34;;;;;;;32.92;20.58;;;;;;;;;;2090189;28;20506;-43
2021/10/29 00:32:35;;;;;;;35.95;23.38;;;;;;;;;;2090927;28;20114;-43
2021/10/29 00:33:36;;;;;;;32.25;22.33;;;;;;;;;;2088380;28;20632;-43
2021/10/29 00:34:37;;;;;;;32.88;22.92;;;;;;;;;;2090163;28;20517;-43
2021/10/29 00:35:39;;;;;;;31.87;21.93;;;;;;;;;;2089180;28;20059;-43
2021/10/29 00:36:40;;;;;;;32.85;22.40;;;;;;;;;;2088832;28;20138;-43
2021/10/29 00:37:42;;;;;;;31.83;21.93;;;;;;;;;;2089825;28;20498;-43
2021/10/29 00:38:43;;;;;;;32.25;22.45;;;;;;;;;;2089310;28;20361;-43
2021/10/29 00:39:44;;;;;;;32.83;21.77;;;;;;;;;;2087869;28;20045;-43
2021/10/29 00:40:45;;;;;;;31.10;21.75;;;;;;;;;;2090121;28;20175;-43
2021/10/29 00:41:47;;;;;;;35.53;22.23;;;;;;;;;;2090390;28;20111;-44
2021/10/29 00:42:48;;;;;;;35.70;22.40;;;;;;;;;;2088653;28;20119;-43
2021/10/29 00:43:49;;;;;;;31.13;21.47;;;;;;;;;;2090258;28;20110;-43
2021/10/29 00:44:50;;;;;;;36.42;23.55;;;;;;;;;;2089898;28;20057;-43
2021/10/29 00:45:51;;;;;;;32.80;22.58;;;;;;;;;;2088732;28;20123;-43
2021/10/29 00:46:53;;;;;;;30.52;21.73;;;;;;;;;;2090281;28;20056;-43
2021/10/29 00:47:54;;;;;;;33.43;22.60;;;;;;;;;;2087836;28;20068;-43
2021/10/29 00:48:55;;;;;;;34.67;22.15;;;;;;;;;;2089987;28;20283;-43
2021/10/29 00:49:56;;;;;;;31.63;21.97;;;;;;;;;;2090003;28;20481;-43
2021/10/29 00:50:57;;;;;;;31.50;22.10;;;;;;;;;;2088039;28;20577;-43
2021/10/29 00:51:59;;;;;;;31.45;21.13;;;;;;;;;;2089830;28;20037;-43
2021/10/29 00:53:01;;;;;;;33.33;21.75;;;;;;;;;;2090073;28;20128;-43
2021/10/29 00:54:02;;;;;;;32.30;21.75;;;;;;;;;;2089179;28;20051;-47
2021/10/29 00:55:03;;;;;;;29.45;21.80;;;;;;;;;;2090203;28;20044;-48
2021/10/29 00:56:05;;;;;;;32.17;22.38;;;;;;;;;;2090087;28;20055;-47
2021/10/29 00:57:06;;;;;;;;;;;;;;;;;;2087277;28;20405;-48
2021/10/29 00:58:07;;;;;;;30.08;21.48;;;;;;;;;;2090262;28;19956;-43
2021/10/29 00:59:08;;;;;;;39.42;21.50;;;;;;;;;;2089616;28;20179;-43
2021/10/29 01:00:10;;;;;;;33.03;22.30;;;;;;;;;;2088445;28;20678;-47
2021/10/29 01:01:11;;;;;;;33.00;22.27;;;;;;;;;;2090065;28;20140;-48
2021/10/29 01:02:13;;;;;;;35.33;21.55;;;;;;;;;;2090809;28;20135;-47
2021/10/29 01:03:14;;;;;;;32.95;22.35;;;;;;;;;;2087649;28;20044;-43
2021/10/29 01:04:15;;;;;;;26.88;20.08;;;;;;;;;;2089928;28;20513;-43
2021/10/29 01:05:17;;;;;;;34.90;22.58;;;;;;;;;;2090674;28;20604;-43
2021/10/29 01:06:18;;;;;;;35.80;23.88;;;;;;;;;;2087834;28;20589;-48
2021/10/29 01:07:19;;;;;;;34.35;23.50;;;;;;;;;;2090056;28;20084;-44
2021/10/29 01:08:21;;;;;;;35.95;23.67;;;;;;;;;;2090529;28;20072;-43
2021/10/29 01:09:22;;;;;;;34.55;23.33;;;;;;;;;;2088306;28;20379;-43
2021/10/29 01:10:27;;;;;;;31.97;22.33;;;;;;;;;;2090262;28;20084;-43
2021/10/29 01:11:28;;;;;;;34.92;24.20;;;;;;;;;;2088144;28;20140;-43
2021/10/29 01:12:29;;;;;;;35.70;23.77;;;;;;;;;;2089380;28;20559;-43
2021/10/29 01:13:30;;;;;;;33.85;22.08;;;;;;;;;;2090011;28;20120;-43
2021/10/29 01:14:31;;;;;;;35.90;22.30;;;;;;;;;;2087596;28;20047;-43
2021/10/29 01:15:32;;;;;;;32.63;22.80;;;;;;;;;;2089795;28;20164;-44
2021/10/29 01:16:33;;;;;;;30.50;20.98;;;;;;;;;;2089878;28;20573;-43
2021/10/29 01:17:35;;;;;;;28.35;20.65;;;;;;;;;;2088924;28;20410;-43
2021/10/29 01:18:36;;;;;;;34.03;23.00;;;;;;;;;;2089878;28;20049;-43
2021/10/29 01:19:38;;;;;;;34.55;22.15;;;;;;;;;;2088453;28;20128;-43
2021/10/29 01:20:40;;;;;;;31.33;21.15;;;;;;;;;;2087547;28;20056;-43
2021/10/29 01:21:41;;;;;;;;;;;;;;;;;;2090410;28;20128;-43
2021/10/29 01:22:42;;;;;;;30.48;20.85;;;;;;;;;;2090478;28;19927;-42
2021/10/29 01:23:43;;;;;;;31.55;21.40;;;;;;;;;;2088132;28;20060;-43
2021/10/29 01:24:44;;;;;;;33.27;22.17;;;;;;;;;;2089946;28;20096;-43
2021/10/29 01:25:45;;;;;;;31.02;21.27;;;;;;;;;;2089192;28;20573;-43
2021/10/29 01:26:46;;;;;;;32.40;20.30;;;;;;;;;;2087951;28;20049;-43
2021/10/29 01:27:47;;;;;;;33.58;21.52;;;;;;;;;;2089834;28;20128;-43
2021/10/29 01:28:48;;;;;;;32.17;21.65;;;;;;;;;;2088861;28;20498;-43
2021/10/29 01:29:50;;;;;;;31.17;22.97;;;;;;;;;;2088317;28;20128;-43
2021/10/29 01:30:51;;;;;;;33.22;22.33;;;;;;;;;;2089775;28;20053;-43
2021/10/29 01:31:52;;;;;;;35.03;22.23;;;;;;;;;;2088660;28;20049;-43
2021/10/29 01:32:53;;;;;;;31.70;22.67;;;;;;;;;;2088972;28;20340;-44
2021/10/29 01:33:54;;;;;;;37.00;23.58;;;;;;;;;;2089746;28;20045;-43
2021/10/29 01:34:55;;;;;;;36.58;22.52;;;;;;;;;;2090273;28;20132;-43
2021/10/29 01:35:57;;;;;;;35.23;23.43;;;;;;;;;;2088767;28;20081;-43
2021/10/29 01:36:58;;;;;;;32.80;23.20;;;;;;;;;;2089850;28;20045;-43
2021/10/29 01:37:59;;;;;;;36.83;24.07;;;;;;;;;;2090100;28;20488;-43
2021/10/29 01:39:00;;;;;;;32.58;22.45;;;;;;;;;;2088370;28;20068;-43
2021/10/29 01:40:02;;;;;;;32.60;22.05;;;;;;;;;;2089777;28;20558;-43
2021/10/29 01:41:03;;;;;;;29.88;22.10;;;;;;;;;;2088347;28;20128;-43
2021/10/29 01:42:05;;;;;;;30.95;24.15;;;;;;;;;;2089047;28;20136;-43
2021/10/29 01:43:06;;;;;;;37.28;23.98;;;;;;;;;;2089998;28;20092;-47
2021/10/29 01:44:07;;;;;;;34.42;21.45;;;;;;;;;;2087464;28;20077;-47
2021/10/29 01:45:09;;;;;;;35.65;23.35;;;;;;;;;;2089756;28;20091;-48
2021/10/29 01:46:10;;;;;;;31.75;22.52;;;;;;;;;;2089611;28;20405;-48
2021/10/29 01:47:11;;;;;;;30.48;22.33;;;;;;;;;;2088620;28;20051;-47
2021/10/29 01:48:14;;;;;;;35.77;22.47;;;;;;;;;;2089925;28;20060;-43
2021/10/29 01:49:15;;;;;;;36.65;23.77;;;;;;;;;;2089637;28;20133;-47
2021/10/29 01:50:16;;;;;;;33.50;22.97;;;;;;;;;;2088751;28;20054;-46
2021/10/29 01:51:18;;;;;;;32.55;22.45;;;;;;;;;;2089638;28;20186;-47
2021/10/29 01:52:19;;;;;;;;;;;;;;;;;;2089512;28;20073;-47
2021/10/29 01:53:21;;;;;;;30.60;21.08;;;;;;;;;;2087745;28;20035;-47
2021/10/29 01:54:22;;;;;;;31.48;21.23;;;;;;;;;;2089710;28;20139;-48
2021/10/29 01:55:23;;;;;;;32.17;21.67;;;;;;;;;;2089036;28;20139;-49
2021/10/29 01:56:24;;;;;;;33.20;21.83;;;;;;;;;;2087807;28;20041;-48
2021/10/29 01:57:25;;;;;;;34.65;21.52;;;;;;;;;;2089560;28;20052;-49
2021/10/29 01:58:26;;;;;;;33.45;20.70;;;;;;;;;;2088874;28;20131;-47
2021/10/29 01:59:27;;;;;;;31.90;20.98;;;;;;;;;;2088089;28;20529;-48
2021/10/29 02:00:28;;;;;;;35.93;21.40;;;;;;;;;;2089732;28;20053;-48
2021/10/29 02:01:30;;;;;;;32.00;20.08;;;;;;;;;;2089932;28;20406;-47
2021/10/29 02:02:31;;;;;;;36.97;22.88;;;;;;;;;;2088214;28;20044;-49
2021/10/29 02:03:33;;;;;;;32.05;20.70;;;;;;;;;;2088098;28;20080;-48
2021/10/29 02:04:34;;;;;;;29.50;20.23;;;;;;;;;;2088026;28;20518;-48
2021/10/29 02:05:37;;;;;;;31.40;21.67;;;;;;;;;;2089083;28;20243;-46
2021/10/29 02:06:39;;;;;;;36.80;22.15;;;;;;;;;;2089633;28;20132;-50
2021/10/29 02:07:40;;;;;;;30.85;20.50;;;;;;;;;;2089636;28;20057;-48
2021/10/29 02:08:41;;;;;;;32.00;20.90;;;;;;;;;;2088589;28;20077;-48
2021/10/29 02:09:42;;;;;;;30.38;21.45;;;;;;;;;;2089648;28;20053;-47
2021/10/29 02:10:43;;;;;;;31.67;21.93;;;;;;;;;;2087505;28;20041;-47
2021/10/29 02:11:44;;;;;;;36.97;21.05;;;;;;;;;;2089416;28;20045;-47
2021/10/29 02:12:45;;;;;;;32.83;20.92;;;;;;;;;;2089447;28;20453;-48
2021/10/29 02:13:46;;;;;;;31.60;20.60;;;;;;;;;;2088815;28;20052;-48
2021/10/29 02:14:48;;;;;;;32.10;20.63;;;;;;;;;;2089400;28;20410;-47
2021/10/29 02:15:48;;;;;;;32.72;20.95;;;;;;;;;;2089463;28;20494;-47
2021/10/29 02:16:50;;;;;;;32.53;21.43;;;;;;;;;;2087069;28;20063;-48
2021/10/29 02:17:51;;;;;;;32.17;19.95;;;;;;;;;;2089554;28;20341;-49
2021/10/29 02:18:52;;;;;;;30.67;19.97;;;;;;;;;;2089721;28;20049;-44
2021/10/29 02:19:53;;;;;;;31.73;19.55;;;;;;;;;;2087391;28;20049;-43
2021/10/29 02:20:54;;;;;;;29.10;19.30;;;;;;;;;;2089609;28;20048;-43
2021/10/29 02:21:56;;;;;;;27.95;19.05;;;;;;;;;;2089783;28;20057;-43
2021/10/29 02:22:57;;;;;;;28.10;18.30;;;;;;;;;;2087946;28;20136;-43
2021/10/29 02:23:58;;;;;;;31.58;20.50;;;;;;;;;;2089387;28;20120;-43
2021/10/29 02:24:59;;;;;;;33.35;21.23;;;;;;;;;;2088537;28;20194;-43
2021/10/29 02:26:00;;;;;;;32.22;19.58;;;;;;;;;;2087090;28;20127;-43
2021/10/29 02:27:01;;;;;;;32.67;21.17;;;;;;;;;;2089722;28;20060;-50
2021/10/29 02:28:03;;;;;;;36.08;19.83;;;;;;;;;;2087903;28;20144;-49
2021/10/29 02:29:04;;;;;;;32.88;20.48;;;;;;;;;;2088872;28;20507;-48
2021/10/29 02:30:06;;;;;;;35.85;21.35;;;;;;;;;;2089410;28;20329;-47
2021/10/29 02:31:07;;;;;;;30.85;20.77;;;;;;;;;;2089390;28;20041;-47
2021/10/29 02:32:09;;;;;;;32.38;20.27;;;;;;;;;;2088128;28;20106;-48
2021/10/29 02:33:10;;;;;;;35.33;22.17;;;;;;;;;;2089329;28;20139;-48
2021/10/29 02:34:11;;;;;;;33.42;22.00;;;;;;;;;;2089311;28;20605;-47
2021/10/29 02:35:12;;;;;;;35.13;23.55;;;;;;;;;;2088577;28;20057;-47
2021/10/29 02:36:13;;;;;;;33.72;22.50;;;;;;;;;;2089630;28;20418;-47
2021/10/29 02:37:15;;;;;;;35.03;21.73;;;;;;;;;;2086772;28;20045;-48
2021/10/29 02:38:16;;;;;;;35.22;22.30;;;;;;;;;;2081435;28;20061;-48
2021/10/29 02:39:17;;;;;;;30.77;21.63;;;;;;;;;;2081015;28;20045;-48
2021/10/29 02:40:18;;;;;;;33.92;22.73;;;;;;;;;;2087701;28;20143;-48
2021/10/29 02:41:19;;;;;;;33.90;22.97;;;;;;;;;;2089454;28;20047;-48
2021/10/29 02:42:20;;;;;;;35.60;23.38;;;;;;;;;;2089612;28;20085;-47
2021/10/29 02:43:21;;;;;;;40.23;24.93;;;;;;;;;;2088363;28;20045;-47
2021/10/29 02:44:22;;;;;;;35.30;24.15;;;;;;;;;;2089432;28;20132;-47
2021/10/29 02:45:23;;;;;;;34.13;22.98;;;;;;;;;;2088754;28;20452;-47
2021/10/29 02:46:26;;;;;;;37.00;23.80;;;;;;;;;;2087413;28;20045;-47
2021/10/29 02:47:27;;;;;;;39.85;24.83;;;;;;;;;;2089373;28;20060;-48
2021/10/29 02:48:28;;;;;;;39.13;24.47;;;;;;;;;;2090001;28;20459;-49
2021/10/29 02:49:30;;;;;;;41.30;24.52;;;;;;;;;;2087591;28;20044;-47
2021/10/29 02:50:31;;;;;;;41.17;24.90;;;;;;;;;;2089284;28;20124;-47
2021/10/29 02:51:31;;;;;;;39.75;25.80;;;;;;;;;;2088595;28;20128;-47
2021/10/29 02:52:33;;;;;;;42.60;25.00;;;;;;;;;;2087598;28;20045;-47
2021/10/29 02:53:36;;;;;;;36.83;25.20;;;;;;;;;;2089247;28;20041;-49
2021/10/29 02:54:38;;;;;;;38.60;25.00;;;;;;;;;;2089666;28;20051;-47
2021/10/29 02:55:38;;;;;;;35.60;23.27;;;;;;;;;;2087756;28;20048;-47
2021/10/29 02:56:39;;;;;;;38.23;24.47;;;;;;;;;;2089439;28;20405;-48
2021/10/29 02:57:41;;;;;;;37.20;23.70;;;;;;;;;;2087836;28;20123;-47
2021/10/29 02:58:42;;;;;;;40.72;24.55;;;;;;;;;;2088667;28;20127;-48
2021/10/29 02:59:43;;;;;;;36.53;23.42;;;;;;;;;;2089455;28;20128;-47
2021/10/29 03:00:44;;;;;;;48.47;27.85;;;;;;;;;;2087445;28;20423;-43
2021/10/29 03:01:45;;;;;;;43.17;28.38;;;;;;;;;;2088984;28;20049;-43
2021/10/29 03:02:47;;;;;;;44.15;26.52;;;;;;;;;;2088056;28;20106;-48
2021/10/29 03:03:48;;;;;;;39.30;26.02;;;;;;;;;;2089404;28;20444;-48
2021/10/29 03:04:49;;;;;;;45.00;27.20;;;;;;;;;;2087853;28;20057;-49
2021/10/29 03:05:50;;;;;;;42.83;27.35;;;;;;;;;;2089545;28;20049;-48
2021/10/29 03:06:51;;;;;;;37.23;24.53;;;;;;;;;;2086982;28;20063;-43
2021/10/29 03:07:53;;;;;;;35.28;23.67;;;;;;;;;;2089121;28;20623;-43
2021/10/29 03:08:54;;;;;;;41.90;24.40;;;;;;;;;;2089160;28;20132;-43
2021/10/29 03:09:55;;;;;;;36.20;23.95;;;;;;;;;;2086735;28;20132;-43
2021/10/29 03:10:56;;;;;;;34.95;23.83;;;;;;;;;;2089163;28;20061;-43
2021/10/29 03:11:58;;;;;;;37.53;25.80;;;;;;;;;;2089263;28;20053;-43
2021/10/29 03:12:59;;;;;;;39.10;26.27;;;;;;;;;;2086818;28;20071;-43
2021/10/29 03:14:00;;;;;;;49.63;26.88;;;;;;;;;;2089315;28;20048;-43
2021/10/29 03:15:01;;;;;;;39.75;24.95;;;;;;;;;;2088765;28;20053;-43
2021/10/29 03:16:02;;;;;;;42.25;25.88;;;;;;;;;;2087135;28;20140;-43
2021/10/29 03:17:04;;;;;;;44.88;27.17;;;;;;;;;;2089444;28;20049;-48
2021/10/29 03:18:04;;;;;;;38.90;24.13;;;;;;;;;;2088582;28;20440;-48
2021/10/29 03:19:06;;;;;;;36.28;24.85;;;;;;;;;;2087246;28;20071;-47
2021/10/29 03:20:07;;;;;;;38.25;25.45;;;;;;;;;;2089149;28;20135;-48
2021/10/29 03:21:09;;;;;;;44.95;25.80;;;;;;;;;;2089890;28;20105;-47
2021/10/29 03:22:10;;;;;;;38.25;25.38;;;;;;;;;;2087332;28;20051;-47
2021/10/29 03:23:13;;;;;;;40.63;25.30;;;;;;;;;;2089167;28;20071;-49
2021/10/29 03:24:14;;;;;;;42.47;24.25;;;;;;;;;;2089456;28;21474;-48
2021/10/29 03:25:15;;;;;;;39.33;25.05;;;;;;;;;;2087609;28;20073;-49
2021/10/29 03:26:16;;;;;;;42.67;25.70;;;;;;;;;;2089195;28;20082;-47
2021/10/29 03:27:18;;;;;;;37.83;25.05;;;;;;;;;;2089347;28;20045;-47
2021/10/29 03:28:20;;;;;;;44.40;26.00;;;;;;;;;;2086815;28;20532;-47
2021/10/29 03:29:21;;;;;;;43.35;26.40;;;;;;;;;;2089014;28;20044;-51
2021/10/29 03:30:22;;;;;;;44.47;27.13;;;;;;;;;;2087398;28;20064;-48
2021/10/29 03:31:23;;;;;;;41.25;24.48;;;;;;;;;;2088935;28;20460;-43
2021/10/29 03:32:24;;;;;;;41.73;25.33;;;;;;;;;;2089116;28;20478;-44
2021/10/29 03:33:25;;;;;;;42.70;26.77;;;;;;;;;;2088316;28;20048;-43
2021/10/29 03:34:27;;;;;;;39.85;25.83;;;;;;;;;;2087862;28;20057;-43
2021/10/29 03:35:28;;;;;;;41.53;25.42;;;;;;;;;;2089382;28;20075;-43
2021/10/29 03:36:29;;;;;;;41.15;26.40;;;;;;;;;;2086857;28;20047;-43
2021/10/29 03:37:46;;;;;;;48.95;28.88;;;;;;;;;;2088852;28;20049;-43
2021/10/29 03:38:58;;;;;;;45.90;27.83;;;;;;;;;;2088508;28;20517;-43
2021/10/29 03:40:07;;;;;;;45.33;28.07;;;;;;;;;;2086998;28;20052;-43
2021/10/29 03:41:10;;;;;;;46.50;27.25;;;;;;;;;;2089061;28;20361;-43
2021/10/29 03:42:18;;;;;;;45.40;27.83;;;;;;;;;;2087924;28;20052;-43
2021/10/29 03:43:24;;;;;;;43.38;27.27;;;;;;;;;;2088499;28;20136;-43
2021/10/29 03:44:33;;;;;;;47.22;28.30;;;;;;;;;;2090371;28;20087;-43
2021/10/29 03:45:40;;;;;;;47.80;28.05;;;;;;;;;;2088302;28;20373;-48
2021/10/29 03:46:42;;;;;;;43.00;28.27;;;;;;;;;;2090635;28;20049;-49
2021/10/29 03:47:49;;;;;;;44.95;27.58;;;;;;;;;;2089774;28;20045;-48
2021/10/29 03:49:05;;;;;;;46.88;29.67;;;;;;;;;;2087860;28;20483;-47
2021/10/29 03:50:15;;;;;;;48.28;27.83;;;;;;;;;;2090548;28;20312;-47
2021/10/29 03:51:20;;;;;;;43.22;26.52;;;;;;;;;;2088154;28;20402;-47
2021/10/29 03:52:24;;;;;;;41.80;26.83;;;;;;;;;;2089495;28;20055;-47
2021/10/29 03:53:30;;;;;;;45.95;27.90;;;;;;;;;;2090501;28;20067;-48
2021/10/29 03:54:33;;;;;;;48.92;29.23;;;;;;;;;;2088101;28;20175;-48
2021/10/29 03:55:38;;;;;;;48.13;29.95;;;;;;;;;;2090427;28;20422;-50
2021/10/29 03:56:42;;;;;;;46.40;29.08;;;;;;;;;;2090920;28;20620;-47
2021/10/29 03:57:43;;;;;;;44.97;27.33;;;;;;;;;;2087728;28;20131;-50
2021/10/29 03:58:45;;;;;;;44.70;26.83;;;;;;;;;;2090356;28;20052;-48
2021/10/29 03:59:46;;;;;;;;;;;;;;;;;;2090188;28;20486;-47
2021/10/29 04:00:47;;;;;;;43.58;27.83;;;;;;;;;;2088522;28;19921;-48
2021/10/29 04:01:49;;;;;;;42.08;25.77;;;;;;;;;;2090364;28;20099;-49
2021/10/29 04:02:50;;;;;;;45.35;28.05;;;;;;;;;;2088308;28;20045;-42
2021/10/29 04:03:51;;;;;;;49.17;30.65;;;;;;;;;;2088856;28;20490;-43
2021/10/29 04:04:52;;;;;;;41.08;28.45;;;;;;;;;;2090328;28;20045;-43
2021/10/29 04:05:53;;;;;;;41.23;27.93;;;;;;;;;;2089148;28;20056;-43
2021/10/29 04:06:54;;;;;;;40.72;26.80;;;;;;;;;;2089254;28;20179;-42
2021/10/29 04:07:56;;;;;;;44.85;28.70;;;;;;;;;;2090463;28;20119;-42
2021/10/29 04:08:56;;;;;;;44.13;27.02;;;;;;;;;;2088797;28;20056;-47
2021/10/29 04:09:58;;;;;;;41.10;27.83;;;;;;;;;;2090174;28;20041;-42
2021/10/29 04:10:59;;;;;;;42.55;28.73;;;;;;;;;;2090262;28;20076;-43
2021/10/29 04:12:01;;;;;;;48.45;31.52;;;;;;;;;;2088125;28;20056;-42
2021/10/29 04:13:04;;;;;;;50.55;32.30;;;;;;;;;;2090603;28;20045;-47
2021/10/29 04:14:06;;;;;;;49.13;31.95;;;;;;;;;;2090302;28;20132;-47
2021/10/29 04:15:06;;;;;;;;;;;;;;;;;;2088474;28;20133;-47
2021/10/29 04:16:07;;;;;;;50.55;32.42;;;;;;;;;;2090165;28;20388;-50
2021/10/29 04:17:08;;;;;;;57.25;35.00;;;;;;;;;;2090324;28;20049;-47
2021/10/29 04:18:10;;;;;;;47.35;32.95;;;;;;;;;;2089212;28;20049;-46
2021/10/29 04:19:13;;;;;;;48.50;32.28;;;;;;;;;;2090340;28;20124;-47
2021/10/29 04:20:14;;;;;;;51.00;32.38;;;;;;;;;;2090282;28;20060;-47
2021/10/29 04:21:15;;;;;;;46.63;31.03;;;;;;;;;;2089245;28;20082;-48
2021/10/29 04:22:16;;;;;;;53.20;31.92;;;;;;;;;;2090459;28;20443;-43
2021/10/29 04:23:17;;;;;;;48.63;32.80;;;;;;;;;;2089788;28;20130;-42
2021/10/29 04:24:18;;;;;;;44.17;28.95;;;;;;;;;;2087427;28;20045;-43
2021/10/29 04:25:20;;;;;;;49.17;31.38;;;;;;;;;;2090251;28;20085;-43
2021/10/29 04:26:21;;;;;;;;;;;;;;;;;;2090334;28;20136;-43
2021/10/29 04:27:29;;;;;;;49.90;32.05;;;;;;;;;;2088274;28;19928;-43
2021/10/29 04:28:30;;;;;;;50.00;33.17;;;;;;;;;;2090378;28;20307;-43
2021/10/29 04:29:36;;;;;;;49.85;31.27;;;;;;;;;;2089058;28;20136;-42
2021/10/29 04:30:37;;;;;;;47.17;31.08;;;;;;;;;;2088057;28;20057;-42
2021/10/29 04:31:46;;;;;;;46.95;30.92;;;;;;;;;;2090297;28;20539;-43
2021/10/29 04:32:48;;;;;;;44.75;30.80;;;;;;;;;;2088240;28;20045;-43
2021/10/29 04:33:49;;;;;;;44.50;31.08;;;;;;;;;;2090006;28;20139;-43
2021/10/29 04:34:51;;;;;;;45.95;30.08;;;;;;;;;;2090295;28;20128;-43
2021/10/29 04:35:53;;;;;;;42.00;29.27;;;;;;;;;;2088120;28;20199;-43
2021/10/29 04:36:56;;;;;;;48.65;30.35;;;;;;;;;;2090026;28;20563;-43
2021/10/29 04:37:57;;;;;;;45.15;29.45;;;;;;;;;;2090428;28;20051;-43
2021/10/29 04:39:00;;;;;;;48.38;32.78;;;;;;;;;;2087660;28;20532;-43
2021/10/29 04:40:01;;;;;;;51.40;38.25;;;;;;;;;;2090153;28;20045;-43
2021/10/29 04:41:03;;;;;;;53.63;36.47;;;;;;;;;;2089695;28;20044;-43
2021/10/29 04:42:04;;;;;;;48.13;33.38;;;;;;;;;;2088159;28;20064;-44
2021/10/29 04:43:06;;;;;;;52.58;36.08;;;;;;;;;;2090212;28;20561;-43
2021/10/29 04:44:07;;;;;;;;;;;;;;;;;;2091489;28;20098;-43
2021/10/29 04:45:09;;;;;;;48.22;30.80;;;;;;;;;;2088023;28;20370;-43
2021/10/29 04:46:10;;;;;;;44.15;30.80;;;;;;;;;;2089499;28;20079;-43
2021/10/29 04:47:11;;;;;;;47.13;31.50;;;;;;;;;;2088828;28;20418;-43
2021/10/29 04:48:12;;;;;;;46.88;32.53;;;;;;;;;;2087786;28;20339;-43
2021/10/29 04:49:13;;;;;;;47.13;31.50;;;;;;;;;;2090368;28;20099;-43
2021/10/29 04:50:14;;;;;;;50.25;32.95;;;;;;;;;;2090643;28;20286;-43
2021/10/29 04:51:15;;;;;;;45.60;31.13;;;;;;;;;;2088729;28;20126;-43
2021/10/29 04:52:16;;;;;;;44.70;30.40;;;;;;;;;;2090145;28;20051;-43
2021/10/29 04:53:17;;;;;;;50.95;32.50;;;;;;;;;;2089388;28;20398;-43
2021/10/29 04:54:19;;;;;;;48.78;30.75;;;;;;;;;;2088574;28;20057;-43
2021/10/29 04:55:20;;;;;;;52.70;33.72;;;;;;;;;;2090201;28;20117;-43
2021/10/29 04:56:22;;;;;;;50.20;32.55;;;;;;;;;;2088689;28;20443;-43
2021/10/29 04:57:23;;;;;;;47.97;32.55;;;;;;;;;;2089496;28;20136;-43
2021/10/29 04:58:24;;;;;;;49.30;33.90;;;;;;;;;;2090323;28;20516;-43
2021/10/29 04:59:26;;;;;;;52.23;33.83;;;;;;;;;;2090329;28;20060;-43
2021/10/29 05:00:27;;;;;;;51.17;33.95;;;;;;;;;;2088921;28;20059;-43
2021/10/29 05:01:31;;;;;;;45.53;32.05;;;;;;;;;;2090156;28;20120;-45
2021/10/29 05:02:33;;;;;;;51.72;33.80;;;;;;;;;;2087750;28;20486;-43
2021/10/29 05:03:35;;;;;;;47.58;32.03;;;;;;;;;;2088600;28;20059;-43
2021/10/29 05:04:36;;;;;;;49.45;34.83;;;;;;;;;;2090049;28;20049;-44
2021/10/29 05:05:37;;;;;;;50.70;35.37;;;;;;;;;;2087802;28;20045;-43
2021/10/29 05:06:38;;;;;;;52.85;35.75;;;;;;;;;;2090097;28;20183;-44
2021/10/29 05:07:39;;;;;;;52.40;33.87;;;;;;;;;;2090201;28;20135;-43
2021/10/29 05:08:40;;;;;;;57.85;35.60;;;;;;;;;;2089122;28;20357;-43
2021/10/29 05:09:41;;;;;;;52.15;35.25;;;;;;;;;;2090216;28;20056;-45
2021/10/29 05:10:42;;;;;;;54.85;34.97;;;;;;;;;;2089776;28;20131;-43
2021/10/29 05:11:44;;;;;;;50.57;34.17;;;;;;;;;;2089343;28;20044;-44
2021/10/29 05:12:46;;;;;;;52.33;35.08;;;;;;;;;;2090122;28;20466;-43
2021/10/29 05:13:47;;;;;;;60.75;38.45;;;;;;;;;;2090631;28;20132;-43
2021/10/29 05:14:48;;;;;;;54.25;37.30;;;;;;;;;;2088338;28;20133;-44
2021/10/29 05:15:49;;;;;;;60.60;40.35;;;;;;;;;;2090093;28;20127;-44
2021/10/29 05:16:51;;;;;;;59.50;39.50;;;;;;;;;;2090731;28;20045;-43
2021/10/29 05:17:54;;;;;;;53.80;37.00;;;;;;;;;;2088400;28;20041;-44
2021/10/29 05:18:55;;;;;;;52.22;36.30;;;;;;;;;;2089817;28;20128;-44
2021/10/29 05:19:56;;;;;;;53.65;37.97;;;;;;;;;;2089291;28;20144;-43
2021/10/29 05:20:57;;;;;;;65.13;44.00;;;;;;;;;;2088675;28;20494;-44
2021/10/29 05:21:59;;;;;;;71.75;43.42;;;;;;;;;;2089831;28;20482;-44
2021/10/29 05:23:00;;;;;;;60.50;40.53;;;;;;;;;;2088921;28;20052;-44
2021/10/29 05:24:01;;;;;;;57.83;39.88;;;;;;;;;;2088725;28;20128;-43
2021/10/29 05:25:03;;;;;;;64.10;41.15;;;;;;;;;;2089874;28;20483;-43
2021/10/29 05:26:04;;;;;;;67.18;44.83;;;;;;;;;;2087729;28;20128;-44
2021/10/29 05:27:06;;;;;;;74.30;44.30;;;;;;;;;;2089661;28;20044;-44
2021/10/29 05:28:07;;;;;;;;;;;;;;;;;;2090328;28;20083;-44
2021/10/29 05:29:08;;;;;;;66.97;40.22;;;;;;;;;;2087764;28;19928;-43
2021/10/29 05:30:09;;;;;;;71.22;40.63;;;;;;;;;;2089822;28;20256;-43
2021/10/29 05:31:11;;;;;;;67.38;41.63;;;;;;;;;;2089919;28;20045;-44
2021/10/29 05:32:12;;;;;;;;;;;;;;;;;;2086918;28;20097;-43
2021/10/29 05:33:13;;;;;;;59.92;39.58;;;;;;;;;;2089807;28;19921;-43
2021/10/29 05:34:14;;;;;;;61.67;40.97;;;;;;;;;;2089880;28;20056;-45
2021/10/29 05:35:15;;;;;;;64.13;40.30;;;;;;;;;;2087643;28;20049;-43
2021/10/29 05:36:16;;;;;;;60.03;40.67;;;;;;;;;;2081740;28;20641;-44
2021/10/29 05:37:17;;;;;;;66.38;42.25;;;;;;;;;;2081667;28;20375;-44
2021/10/29 05:38:19;;;;;;;64.17;41.67;;;;;;;;;;2086866;28;20048;-43
2021/10/29 05:39:19;;;;;;;70.72;42.80;;;;;;;;;;2089860;28;20202;-43
2021/10/29 05:40:21;;;;;;;65.68;43.10;;;;;;;;;;2090000;28;20528;-43
2021/10/29 05:41:21;;;;;;;69.32;43.30;;;;;;;;;;2087509;28;20409;-44
2021/10/29 05:42:23;;;;;;;65.30;41.83;;;;;;;;;;2089787;28;20060;-44
2021/10/29 05:43:24;;;;;;;67.72;41.83;;;;;;;;;;2089313;28;20496;-44
2021/10/29 05:44:25;;;;;;;65.45;40.50;;;;;;;;;;2088155;28;20052;-43
2021/10/29 05:45:26;;;;;;;72.10;40.47;;;;;;;;;;2089846;28;20060;-43
2021/10/29 05:46:30;;;;;;;60.17;39.42;;;;;;;;;;2089343;28;20052;-44
2021/10/29 05:47:31;;;;;;;63.72;39.70;;;;;;;;;;2087370;28;20045;-43
2021/10/29 05:48:33;;;;;;;56.15;36.72;;;;;;;;;;2089770;28;20410;-43
2021/10/29 05:49:34;;;;;;;56.03;37.63;;;;;;;;;;2089232;28;20480;-43
2021/10/29 05:50:36;;;;;;;59.70;38.97;;;;;;;;;;2088448;28;20044;-44
2021/10/29 05:51:42;;;;;;;;;;;;;;;;;;2090297;28;20048;-43
2021/10/29 05:52:44;;;;;;;61.55;38.78;;;;;;;;;;2090079;28;20003;-43
2021/10/29 05:53:54;;;;;;;59.90;38.38;;;;;;;;;;2088396;28;20152;-43
2021/10/29 05:55:12;;;;;;;57.35;37.67;;;;;;;;;;2089835;28;20136;-43
2021/10/29 05:56:14;;;;;;;64.03;38.45;;;;;;;;;;2086648;28;20055;-43
2021/10/29 05:57:14;;;;;;;60.40;39.08;;;;;;;;;;2089684;28;20123;-43
2021/10/29 05:58:16;;;;;;;62.55;38.38;;;;;;;;;;2090098;28;20123;-43
2021/10/29 05:59:17;;;;;;;66.63;40.92;;;;;;;;;;2088315;28;20140;-42
2021/10/29 06:00:19;;;;;;;57.53;37.47;;;;;;;;;;2089733;28;20417;-44
2021/10/29 06:01:20;;;;;;;;;;;;;;;;;;2089616;28;20136;-42